Terminal Aerodrome Forecast
Issued by NWS

Home | Current Version | Previous Version | Text Only | Print | Product List | Glossary Off
Versions: 1 2 3 4 5 6 7 8 9 10 11 12 13

000
FTUS43 KBIS 270902 AAA
TAFMOT
TAF AMD
KMOT 270902Z 2709/2806 17015G25KT P6SM SCT250
     FM271400 17012G20KT P6SM SCT120 BKN200
     FM280100 19007KT P6SM TSRA OVC090CB
     FM280300 29015KT P6SM SHRA VCTS SCT025 OVC080CB=

USA.gov is the U.S. government's official web portal to all federal, state and local government web resources and services.